Time;durP1;ratioP1;P1;durP2;ratioP2;P2;SDS_P1;SDS_P2;PMS_P1;PMS_P2;Temp;Humidity;BMP_temperature;BMP_pressure;BME280_temperature;BME280_humidity;BME280_pressure;Samples;Min_cycle;Max_cycle;Signal;HPM_P1;HPM_P2
2023/01/20 00:01:06;;;;;;;11.37;4.80;;;;;;;0.55;96.67;95537.31;4980036;28;20355;-70
2023/01/20 00:03:32;;;;;;;14.27;5.00;;;;;;;0.62;95.23;95532.31;4978597;28;20614;-70
2023/01/20 00:06:00;;;;;;;14.43;5.27;;;;;;;0.71;95.05;95528.06;4979657;28;20668;-70
2023/01/20 00:08:26;;;;;;;10.77;4.43;;;;;;;0.61;95.28;95527.25;4979607;28;20285;-69
2023/01/20 00:10:53;;;;;;;10.77;5.30;;;;;;;0.58;95.49;95535.28;4979653;28;20265;-70
2023/01/20 00:13:19;;;;;;;12.33;5.00;;;;;;;0.62;95.41;95539.25;4979312;28;20211;-70
2023/01/20 00:15:45;;;;;;;16.13;5.17;;;;;;;0.58;94.91;95538.69;4979176;28;20252;-70
2023/01/20 00:18:12;;;;;;;12.47;5.20;;;;;;;0.61;95.12;95537.59;4978665;28;20258;-70
2023/01/20 00:20:38;;;;;;;11.27;5.07;;;;;;;0.68;95.19;95533.53;4979898;28;20207;-70
2023/01/20 00:23:06;;;;;;;14.23;6.13;;;;;;;0.64;96.08;95537.34;4979564;28;20207;-70
2023/01/20 00:25:35;;;;;;;12.23;4.80;;;;;;;0.58;96.26;95540.47;4978353;28;20203;-70
2023/01/20 00:28:01;;;;;;;11.60;5.40;;;;;;;0.56;95.83;95544.16;4979074;28;20234;-70
2023/01/20 00:30:28;;;;;;;10.17;4.90;;;;;;;0.62;95.12;95547.88;4979578;28;20208;-69
2023/01/20 00:32:54;;;;;;;11.73;5.30;;;;;;;0.62;96.62;95549.63;4979068;28;20207;-69
2023/01/20 00:35:20;;;;;;;9.30;4.60;;;;;;;0.61;96.27;95550.56;4978007;28;20234;-70
2023/01/20 00:37:47;;;;;;;11.53;4.80;;;;;;;0.62;96.01;95549.63;4979486;28;20230;-70
2023/01/20 00:40:15;;;;;;;20.40;6.30;;;;;;;0.62;95.57;95550.47;4978707;28;20211;-70
2023/01/20 00:42:41;;;;;;;8.73;4.40;;;;;;;0.58;96.30;95550.03;4978761;28;20199;-69
2023/01/20 00:45:08;;;;;;;12.13;4.80;;;;;;;0.57;96.45;95554.38;4978499;28;20289;-69
2023/01/20 00:47:35;;;;;;;13.43;5.33;;;;;;;0.64;96.01;95558.91;4979142;28;20227;-70
2023/01/20 00:50:01;;;;;;;17.97;5.07;;;;;;;0.66;95.28;95554.41;4978137;28;20714;-70
2023/01/20 00:52:27;;;;;;;10.50;4.50;;;;;;;0.66;96.06;95556.16;4979324;28;20230;-70
2023/01/20 00:54:54;;;;;;;13.40;6.13;;;;;;;0.61;95.36;95563.53;4977844;28;20231;-70
2023/01/20 00:57:22;;;;;;;13.23;5.33;;;;;;;0.63;95.59;95556.44;4978691;28;20271;-70
2023/01/20 01:00:11;;;;;;;10.43;5.13;;;;;;;0.67;95.95;95563.00;5097505;27;20516;-70
2023/01/20 01:02:38;;;;;;;12.33;4.90;;;;;;;0.63;96.13;95572.81;5055048;28;20233;-69
2023/01/20 01:05:06;;;;;;;12.23;5.30;;;;;;;0.63;95.88;95574.59;5053284;28;20744;-69
2023/01/20 01:07:32;;;;;;;13.70;5.30;;;;;;;0.60;96.10;95575.69;5054800;28;20217;-70
2023/01/20 01:09:59;;;;;;;11.97;4.30;;;;;;;0.58;96.01;95571.59;5054317;28;20281;-69
2023/01/20 01:12:25;;;;;;;13.53;6.17;;;;;;;0.63;95.42;95577.19;5054215;28;20200;-69
2023/01/20 01:14:51;;;;;;;15.90;4.67;;;;;;;0.61;95.62;95579.06;5052768;28;20204;-69
2023/01/20 01:17:22;;;;;;;13.83;6.10;;;;;;;0.72;95.96;95579.78;5054954;28;20673;-69
2023/01/20 01:19:48;;;;;;;11.00;5.13;;;;;;;0.55;97.48;95584.81;5054337;28;20228;-70
2023/01/20 01:22:15;;;;;;;9.87;4.83;;;;;;;0.57;97.35;95582.91;5053710;28;20687;-70
2023/01/20 01:24:43;;;;;;;11.53;5.17;;;;;;;0.71;96.81;95583.34;5053020;28;20266;-70
2023/01/20 01:27:09;;;;;;;14.43;5.80;;;;;;;0.64;96.61;95589.19;5054021;28;20213;-70
2023/01/20 01:29:36;;;;;;;14.07;4.93;;;;;;;0.64;96.46;95591.78;5053423;28;20200;-70
2023/01/20 01:32:02;;;;;;;11.63;5.23;;;;;;;0.59;96.53;95588.78;5054041;28;20211;-70
2023/01/20 01:34:30;;;;;;;12.13;5.13;;;;;;;0.68;96.70;95585.38;5053432;28;20204;-70
2023/01/20 01:36:56;;;;;;;9.40;4.67;;;;;;;0.61;96.16;95594.63;5053837;28;20215;-70
2023/01/20 01:39:23;;;;;;;17.47;5.50;;;;;;;0.66;96.42;95587.28;5053349;28;20978;-70
2023/01/20 01:41:50;;;;;;;13.07;6.00;;;;;;;0.65;96.92;95588.25;5053818;28;20297;-70
2023/01/20 01:44:16;;;;;;;14.20;5.17;;;;;;;0.65;97.37;95596.84;5053467;28;20212;-70
2023/01/20 01:46:43;;;;;;;15.27;5.27;;;;;;;0.67;97.15;95592.31;5053229;28;20775;-70
2023/01/20 01:49:16;;;;;;;11.77;5.20;;;;;;;0.66;97.54;95592.47;5053656;28;20697;-70
2023/01/20 01:51:48;;;;;;;13.23;5.37;;;;;;;0.60;97.50;95595.59;5054000;28;20255;-70
2023/01/20 01:54:18;;;;;;;11.67;4.80;;;;;;;0.54;98.08;95588.34;5052232;28;20200;-70
2023/01/20 01:56:48;;;;;;;16.43;6.67;;;;;;;0.57;98.07;95588.06;5052783;28;20212;-70
2023/01/20 01:59:16;;;;;;;12.50;5.83;;;;;;;0.58;98.00;95594.09;5053009;28;20694;-70
2023/01/20 02:01:46;;;;;;;14.63;5.93;;;;;;;0.63;97.70;95587.56;5052967;28;20220;-70
2023/01/20 02:04:15;;;;;;;11.33;5.67;;;;;;;0.67;97.43;95594.09;5051936;28;20200;-70
2023/01/20 02:06:45;;;;;;;13.90;6.03;;;;;;;0.49;98.41;95600.88;5052563;28;20207;-70
2023/01/20 02:09:13;;;;;;;15.73;6.70;;;;;;;0.38;98.34;95597.56;5051366;28;20225;-70
2023/01/20 02:11:44;;;;;;;12.30;6.43;;;;;;;0.56;97.83;95599.41;5039237;28;20728;-70
2023/01/20 02:14:11;;;;;;;14.77;5.80;;;;;;;0.58;97.75;95594.09;5039072;28;20205;-70
2023/01/20 02:16:46;;;;;;;13.30;5.80;;;;;;;0.62;98.14;95597.13;5039694;28;20205;-70
2023/01/20 02:19:39;;;;;;;11.77;5.27;;;;;;;0.58;98.30;95594.91;5039507;28;20301;-70
2023/01/20 02:22:18;;;;;;;17.17;6.77;;;;;;;0.43;97.57;95596.22;5039488;28;20242;-70
2023/01/20 02:25:24;;;;;;;11.40;6.10;;;;;;;0.69;96.33;95600.81;5039134;28;20248;-70
2023/01/20 02:28:24;;;;;;;13.53;6.43;;;;;;;0.64;95.95;95599.56;5038788;28;20247;-70
2023/01/20 02:31:19;;;;;;;18.07;6.57;;;;;;;0.71;96.24;95598.91;5012384;28;20209;-70
2023/01/20 02:33:55;;;;;;;15.87;7.40;;;;;;;0.67;96.03;95605.28;5038565;28;20662;-70
2023/01/20 02:36:28;;;;;;;15.77;6.57;;;;;;;0.64;96.11;95600.38;5039615;28;20262;-70
2023/01/20 02:39:00;;;;;;;18.67;6.90;;;;;;;0.69;96.51;95605.19;5039148;28;20229;-70
2023/01/20 02:41:35;;;;;;;18.13;7.53;;;;;;;0.64;96.14;95602.97;5039104;28;20201;-70
2023/01/20 02:44:11;;;;;;;15.27;6.97;;;;;;;0.60;96.23;95605.97;5038513;28;20209;-70
2023/01/20 02:46:41;;;;;;;17.47;6.77;;;;;;;0.52;97.18;95616.16;5039472;28;20228;-70
2023/01/20 02:49:17;;;;;;;15.17;6.87;;;;;;;0.56;96.92;95609.78;5039394;28;20282;-70
2023/01/20 02:51:50;;;;;;;15.77;6.20;;;;;;;0.57;97.04;95608.81;5038702;28;20205;-70
2023/01/20 02:54:20;;;;;;;12.47;6.43;;;;;;;0.54;97.13;95606.50;5039131;28;20247;-70
2023/01/20 02:56:48;;;;;;;14.67;6.43;;;;;;;0.47;97.50;95613.16;5039179;28;20247;-70
2023/01/20 02:59:19;;;;;;;17.70;6.37;;;;;;;0.45;98.36;95612.47;5038594;28;20225;-70
2023/01/20 03:01:51;;;;;;;18.07;7.53;;;;;;;0.45;98.33;95619.44;5039600;28;20699;-70
2023/01/20 03:04:24;;;;;;;15.97;6.43;;;;;;;0.36;98.34;95615.03;5038514;28;20209;-70
2023/01/20 03:06:54;;;;;;;20.37;8.13;;;;;;;0.32;98.63;95614.47;5038421;28;20670;-69
2023/01/20 03:09:27;;;;;;;12.77;6.63;;;;;;;0.45;98.36;95619.44;5038519;28;20221;-69
2023/01/20 03:11:58;;;;;;;16.23;8.00;;;;;;;0.43;97.63;95619.53;5038785;28;20571;-69
2023/01/20 03:14:25;;;;;;;18.17;7.27;;;;;;;0.32;98.15;95619.66;5038027;28;20205;-69
2023/01/20 03:16:52;;;;;;;14.37;6.43;;;;;;;0.34;97.62;95627.28;5038354;28;20603;-69
2023/01/20 03:19:20;;;;;;;16.30;7.90;;;;;;;0.38;98.12;95624.31;5038154;28;20236;-69
2023/01/20 03:21:47;;;;;;;18.40;7.50;;;;;;;0.29;98.62;95626.84;5036968;28;20201;-69
2023/01/20 03:24:13;;;;;;;14.47;6.63;;;;;;;0.20;98.29;95635.41;5037841;28;20205;-69
2023/01/20 03:26:39;;;;;;;18.20;7.43;;;;;;;0.29;98.44;95635.44;5038313;28;20202;-69
2023/01/20 03:29:10;;;;;;;16.67;7.97;;;;;;;0.27;98.06;95641.72;5038166;28;20225;-69
2023/01/20 03:31:39;;;;;;;16.10;6.13;;;;;;;0.15;99.13;95637.56;5038480;28;20205;-70
2023/01/20 03:34:11;;;;;;;13.43;6.27;;;;;;;0.13;99.46;95634.31;5037474;28;20205;-69
2023/01/20 03:36:41;;;;;;;14.40;7.10;;;;;;;0.07;99.54;95635.63;5038286;28;20203;-69
2023/01/20 03:39:07;;;;;;;15.93;6.87;;;;;;;0.02;99.36;95636.97;5037518;28;21295;-70
2023/01/20 03:41:40;;;;;;;15.13;6.67;;;;;;;0.07;99.45;95637.41;5038756;28;20201;-69
2023/01/20 03:44:12;;;;;;;18.13;7.00;;;;;;;0.07;99.65;95637.41;5036089;28;20243;-70
2023/01/20 03:46:45;;;;;;;13.40;6.23;;;;;;;0.11;99.13;95638.78;5038474;28;20232;-70
2023/01/20 03:49:18;;;;;;;19.10;7.50;;;;;;;0.03;99.00;95644.59;5037571;28;20675;-69
2023/01/20 03:51:56;;;;;;;14.33;6.43;;;;;;;0.15;99.11;95653.94;5038400;28;20212;-69
2023/01/20 03:54:27;;;;;;;13.50;5.67;;;;;;;0.16;98.40;95649.56;5036653;28;20209;-70
2023/01/20 03:57:02;;;;;;;15.13;6.13;;;;;;;0.11;98.99;95662.09;5038288;28;20318;-69
2023/01/20 03:59:30;;;;;;;16.37;7.73;;;;;;;0.11;98.83;95652.53;5037525;28;20228;-69
2023/01/20 04:01:57;;;;;;;16.13;6.47;;;;;;;-0.02;98.87;95663.25;5037797;28;20206;-69
2023/01/20 04:04:23;;;;;;;14.87;6.80;;;;;;;-0.07;99.20;95668.00;5037389;28;20197;-69
2023/01/20 04:06:52;;;;;;;12.80;7.00;;;;;;;0.01;100.00;95667.22;5037546;28;20219;-70
2023/01/20 04:09:24;;;;;;;12.43;5.93;;;;;;;0.01;100.00;95677.59;5037311;28;20221;-69
2023/01/20 04:11:51;;;;;;;17.07;6.53;;;;;;;-0.18;100.00;95668.03;5037891;28;20236;-70
2023/01/20 04:14:17;;;;;;;16.00;6.80;;;;;;;-0.20;100.00;95673.34;5036601;28;20212;-69
2023/01/20 04:16:50;;;;;;;16.83;7.03;;;;;;;0.07;100.00;95682.22;5037609;28;20213;-69
2023/01/20 04:19:17;;;;;;;14.60;5.93;;;;;;;0.00;100.00;95680.31;5037608;28;20236;-69
2023/01/20 04:21:49;;;;;;;16.03;5.90;;;;;;;0.10;100.00;95676.81;5036812;28;20197;-69
2023/01/20 04:24:24;;;;;;;16.63;6.70;;;;;;;-0.01;100.00;95682.06;5036206;28;20202;-70
2023/01/20 04:26:50;;;;;;;15.03;6.50;;;;;;;0.02;100.00;95684.38;5037254;28;20200;-69
2023/01/20 04:29:17;;;;;;;13.37;6.97;;;;;;;-0.10;100.00;95689.78;5037593;28;20221;-70
2023/01/20 04:31:43;;;;;;;15.67;7.03;;;;;;;-0.08;100.00;95692.22;5037158;28;20689;-70
2023/01/20 04:34:14;;;;;;;20.77;6.97;;;;;;;0.09;100.00;95698.47;5036302;28;20581;-69
2023/01/20 04:36:40;;;;;;;17.87;7.57;;;;;;;-0.01;100.00;95699.38;5037272;28;20212;-69
2023/01/20 04:39:07;;;;;;;16.43;6.87;;;;;;;0.06;100.00;95705.69;5037416;28;20236;-69
2023/01/20 04:41:35;;;;;;;17.33;8.13;;;;;;;0.26;100.00;95703.06;5037509;28;20228;-69
2023/01/20 04:44:02;;;;;;;14.40;6.40;;;;;;;0.16;100.00;95707.38;5036978;28;20205;-69
2023/01/20 04:46:28;;;;;;;20.40;7.33;;;;;;;0.28;99.95;95710.72;5036743;28;20201;-69
2023/01/20 04:48:55;;;;;;;15.57;6.93;;;;;;;0.38;99.87;95702.06;5037638;28;20236;-69
2023/01/20 04:51:21;;;;;;;13.90;6.93;;;;;;;0.36;99.22;95714.31;5037425;28;20572;-69
2023/01/20 04:53:47;;;;;;;15.83;7.20;;;;;;;0.16;100.00;95714.31;5036721;28;20208;-70
2023/01/20 04:56:15;;;;;;;14.77;7.30;;;;;;;0.38;99.46;95716.75;5037026;28;20201;-69
2023/01/20 04:58:43;;;;;;;14.60;7.27;;;;;;;0.44;99.40;95721.44;5037219;28;20312;-69
2023/01/20 05:01:10;;;;;;;23.67;8.40;;;;;;;0.41;98.77;95721.69;5036800;28;20205;-69
2023/01/20 05:03:36;;;;;;;13.07;5.90;;;;;;;0.44;99.15;95722.25;5036744;28;20198;-70
2023/01/20 05:06:05;;;;;;;17.60;6.73;;;;;;;0.35;99.37;95733.38;5037002;28;20209;-69
2023/01/20 05:08:31;;;;;;;17.87;7.03;;;;;;;0.44;99.56;95732.63;5037145;28;20677;-69
2023/01/20 05:10:57;;;;;;;18.43;7.27;;;;;;;0.49;100.00;95738.25;5036672;28;20205;-69
2023/01/20 05:13:24;;;;;;;10.90;6.23;;;;;;;0.49;100.00;95740.81;5036876;28;20212;-69
2023/01/20 05:15:52;;;;;;;17.43;6.80;;;;;;;0.50;100.00;95747.66;5035866;28;20201;-69
2023/01/20 05:18:18;;;;;;;19.43;8.00;;;;;;;0.39;100.00;95749.50;5036780;28;20226;-69
2023/01/20 05:20:45;;;;;;;14.53;7.33;;;;;;;0.46;100.00;95754.06;5036834;28;20280;-69
2023/01/20 05:23:12;;;;;;;19.93;8.10;;;;;;;0.47;100.00;95753.13;5036782;28;20284;-70
2023/01/20 05:25:38;;;;;;;22.27;7.93;;;;;;;0.46;100.00;95756.66;5036476;28;20225;-69
2023/01/20 05:28:05;;;;;;;17.07;7.80;;;;;;;0.59;100.00;95757.25;5036014;28;20251;-69
2023/01/20 05:30:31;;;;;;;25.70;8.07;;;;;;;0.57;100.00;95766.91;5037357;28;20206;-70
2023/01/20 05:32:59;;;;;;;17.10;7.40;;;;;;;0.72;100.00;95773.41;5037093;28;20569;-69
2023/01/20 05:35:26;;;;;;;23.43;8.27;;;;;;;0.70;100.00;95772.72;5035633;28;20712;-69
2023/01/20 05:37:53;;;;;;;19.03;8.93;;;;;;;0.77;99.29;95766.06;5036378;28;20229;-69
2023/01/20 05:40:19;;;;;;;14.80;8.03;;;;;;;0.70;99.94;95768.38;5037260;28;20225;-69
2023/01/20 05:42:46;;;;;;;17.63;7.57;;;;;;;0.67;100.00;95775.56;5036202;28;20201;-70
2023/01/20 05:45:12;;;;;;;27.17;8.67;;;;;;;0.65;100.00;95783.47;5036924;28;20692;-69
2023/01/20 05:47:39;;;;;;;19.93;8.37;;;;;;;0.57;100.00;95779.88;5041187;28;20225;-70
2023/01/20 05:50:08;;;;;;;21.73;8.63;;;;;;;0.49;100.00;95782.28;5040228;28;20205;-70
2023/01/20 05:52:34;;;;;;;22.30;8.13;;;;;;;0.45;100.00;95793.88;5040238;28;20201;-69
2023/01/20 05:55:01;;;;;;;21.70;7.93;;;;;;;0.60;100.00;95792.59;5039279;28;20224;-69
2023/01/20 05:57:27;;;;;;;25.57;9.17;;;;;;;0.34;100.00;95799.09;5040142;28;20233;-69
2023/01/20 05:59:54;;;;;;;27.77;9.33;;;;;;;0.56;100.00;95799.00;5040219;28;20228;-69
2023/01/20 06:02:21;;;;;;;21.33;9.27;;;;;;;0.59;100.00;95801.31;5040898;28;20291;-69
2023/01/20 06:04:48;;;;;;;22.60;9.70;;;;;;;0.67;100.00;95810.09;5039360;28;20197;-70
2023/01/20 06:07:16;;;;;;;26.10;8.77;;;;;;;0.75;100.00;95809.44;5040009;28;20209;-69
2023/01/20 06:09:42;;;;;;;24.90;9.63;;;;;;;0.57;100.00;95800.63;5039954;28;20209;-70
2023/01/20 06:12:09;;;;;;;43.70;15.20;;;;;;;0.42;100.00;95812.28;5040311;28;20213;-70
2023/01/20 06:14:35;;;;;;;50.10;19.83;;;;;;;0.38;100.00;95810.88;5038978;28;20577;-70
2023/01/20 06:17:02;;;;;;;88.07;30.47;;;;;;;0.31;100.00;95814.09;5040029;28;20255;-69
2023/01/20 06:19:28;;;;;;;30.83;13.57;;;;;;;0.32;100.00;95818.31;5039835;28;20287;-70
2023/01/20 06:21:54;;;;;;;22.63;10.70;;;;;;;0.36;100.00;95823.13;5039500;28;20205;-69
2023/01/20 06:24:22;;;;;;;30.73;12.27;;;;;;;0.55;100.00;95818.09;5039249;28;20226;-69
2023/01/20 06:26:50;;;;;;;18.50;9.77;;;;;;;0.48;100.00;95816.13;5039879;28;20205;-69
2023/01/20 06:29:16;;;;;;;28.80;11.47;;;;;;;0.53;100.00;95830.34;5039501;28;20232;-69
2023/01/20 06:31:43;;;;;;;26.23;10.03;;;;;;;0.47;100.00;95830.84;5039744;28;20219;-69
2023/01/20 06:34:10;;;;;;;32.60;13.93;;;;;;;0.54;100.00;95826.81;5038876;28;20254;-69
2023/01/20 06:36:37;;;;;;;33.80;15.77;;;;;;;0.64;100.00;95831.09;5039637;28;20197;-69
2023/01/20 06:39:03;;;;;;;43.67;14.70;;;;;;;0.68;100.00;95829.06;5039541;28;20229;-69
2023/01/20 06:41:31;;;;;;;33.70;14.30;;;;;;;0.81;100.00;95837.47;5038900;28;20228;-70
2023/01/20 06:43:58;;;;;;;64.80;18.37;;;;;;;0.75;100.00;95827.59;5038719;28;20209;-69
2023/01/20 06:46:24;;;;;;;24.60;9.30;;;;;;;0.78;100.00;95835.13;5039464;28;20209;-69
2023/01/20 06:48:51;;;;;;;25.57;10.03;;;;;;;0.59;100.00;95841.00;5038811;28;20226;-69
2023/01/20 06:51:20;;;;;;;18.67;8.87;;;;;;;0.78;100.00;95840.31;5039002;28;20657;-69
2023/01/20 06:53:47;;;;;;;19.43;7.87;;;;;;;0.64;100.00;95843.25;5038370;28;20205;-69
2023/01/20 06:56:15;;;;;;;19.83;8.27;;;;;;;0.56;100.00;95850.00;5039200;28;20292;-69
2023/01/20 06:58:43;;;;;;;28.67;10.90;;;;;;;0.67;100.00;95853.34;5038850;28;20252;-69
2023/01/20 07:01:12;;;;;;;17.03;8.07;;;;;;;0.57;100.00;95856.84;5039001;28;20232;-69
2023/01/20 07:03:41;;;;;;;19.57;8.77;;;;;;;0.63;100.00;95859.75;5038519;28;20208;-69
2023/01/20 07:06:15;;;;;;;16.40;7.30;;;;;;;0.70;100.00;95868.63;5038387;28;20220;-68
2023/01/20 07:08:43;;;;;;;17.83;8.27;;;;;;;0.52;100.00;95867.56;5038564;28;20228;-69
2023/01/20 07:11:09;;;;;;;21.93;8.90;;;;;;;0.53;100.00;95869.22;5038301;28;20746;-68
2023/01/20 07:13:36;;;;;;;18.07;8.20;;;;;;;0.55;100.00;95869.91;5038374;28;20198;-69
2023/01/20 07:16:04;;;;;;;18.33;8.50;;;;;;;0.61;100.00;95879.75;5039020;28;20201;-68
2023/01/20 07:18:30;;;;;;;21.40;9.07;;;;;;;0.50;100.00;95877.25;5038942;28;20221;-68
2023/01/20 07:20:57;;;;;;;17.23;8.10;;;;;;;0.49;100.00;95879.97;5037884;28;20236;-69
2023/01/20 07:23:24;;;;;;;20.03;8.87;;;;;;;0.27;100.00;95885.25;5039602;28;20205;-68
2023/01/20 07:25:57;;;;;;;23.13;8.17;;;;;;;0.58;100.00;95890.41;5038036;28;20205;-68
2023/01/20 07:28:23;;;;;;;20.37;9.30;;;;;;;0.44;100.00;95885.50;5038534;28;20220;-68
2023/01/20 07:30:50;;;;;;;21.63;8.33;;;;;;;0.48;100.00;95897.28;5038450;28;20201;-68
2023/01/20 07:33:18;;;;;;;21.13;8.83;;;;;;;0.52;100.00;95896.06;5038772;28;20205;-69
2023/01/20 07:35:44;;;;;;;19.83;8.63;;;;;;;0.56;100.00;95902.69;5037742;28;20216;-68
2023/01/20 07:38:11;;;;;;;25.33;8.77;;;;;;;0.59;100.00;95907.59;5038883;28;20228;-68
2023/01/20 07:40:37;;;;;;;24.47;9.20;;;;;;;0.58;100.00;95912.91;5038498;28;20225;-68
2023/01/20 07:43:04;;;;;;;14.57;7.20;;;;;;;0.44;100.00;95908.84;5038142;28;20327;-68
2023/01/20 07:45:30;;;;;;;23.27;9.13;;;;;;;0.49;100.00;95909.28;5037714;28;20716;-69
2023/01/20 07:47:57;;;;;;;21.40;9.20;;;;;;;0.59;100.00;95928.34;5037836;28;20232;-69
2023/01/20 07:50:24;;;;;;;29.67;10.70;;;;;;;0.55;100.00;95919.16;5038414;28;20704;-68
2023/01/20 07:52:53;;;;;;;26.57;9.43;;;;;;;0.68;100.00;95923.22;5037828;28;20209;-68
2023/01/20 07:55:20;;;;;;;26.63;10.73;;;;;;;0.60;100.00;95924.81;5037807;28;20205;-69
2023/01/20 07:57:46;;;;;;;32.40;12.20;;;;;;;0.65;100.00;95933.03;5037235;28;20240;-68
2023/01/20 08:00:13;;;;;;;29.87;10.73;;;;;;;0.60;100.00;95930.00;5037895;28;20224;-68
2023/01/20 08:02:40;;;;;;;34.33;11.27;;;;;;;0.59;100.00;95925.75;5037600;28;20211;-68
2023/01/20 08:05:07;;;;;;;31.50;11.33;;;;;;;0.58;100.00;95937.88;5037080;28;20960;-68
2023/01/20 08:07:35;;;;;;;29.90;10.17;;;;;;;0.61;100.00;95947.16;5036698;28;20228;-68
2023/01/20 08:10:02;;;;;;;32.53;9.33;;;;;;;0.59;100.00;95942.09;5036345;28;20540;-68
2023/01/20 08:12:28;;;;;;;26.60;8.83;;;;;;;0.38;100.00;95948.22;5036820;28;20204;-67
2023/01/20 08:14:55;;;;;;;22.77;9.93;;;;;;;0.59;100.00;95951.66;5036573;28;20466;-67
2023/01/20 08:17:22;;;;;;;31.60;10.13;;;;;;;0.47;100.00;95955.25;5036741;28;20216;-69
2023/01/20 08:19:48;;;;;;;27.50;10.17;;;;;;;0.53;100.00;95952.16;5037670;28;20205;-67
2023/01/20 08:22:16;;;;;;;26.30;10.90;;;;;;;0.51;100.00;95953.22;5037924;28;20209;-68
2023/01/20 08:24:43;;;;;;;27.60;10.27;;;;;;;0.59;100.00;95962.03;5036809;28;20591;-66
2023/01/20 08:27:10;;;;;;;30.33;10.80;;;;;;;0.41;100.00;95960.09;5037450;28;20231;-69
2023/01/20 08:29:36;;;;;;;25.40;9.60;;;;;;;0.50;100.00;95962.78;5034679;28;20210;-69
2023/01/20 08:32:03;;;;;;;29.03;10.80;;;;;;;0.47;100.00;95970.81;5036912;28;20215;-67
2023/01/20 08:34:29;;;;;;;27.00;9.57;;;;;;;0.53;100.00;95970.28;5036792;28;20937;-68
2023/01/20 08:36:56;;;;;;;24.23;9.63;;;;;;;0.58;100.00;95974.16;5037388;28;20209;-68
2023/01/20 08:39:23;;;;;;;31.57;11.63;;;;;;;0.50;100.00;95970.56;5036104;28;20236;-68
2023/01/20 08:41:51;;;;;;;33.03;11.60;;;;;;;0.72;100.00;95975.66;5037225;28;20231;-67
2023/01/20 08:44:19;;;;;;;24.47;9.83;;;;;;;0.72;100.00;95975.66;5036270;28;20204;-67
2023/01/20 08:46:46;;;;;;;28.63;9.70;;;;;;;0.65;100.00;95979.69;5037347;28;20696;-67
2023/01/20 08:49:15;;;;;;;31.43;9.70;;;;;;;0.82;100.00;95989.53;5036855;28;20223;-67
2023/01/20 08:51:43;;;;;;;29.03;10.97;;;;;;;0.84;100.00;95990.19;5036437;28;20200;-68
2023/01/20 08:54:09;;;;;;;36.83;11.43;;;;;;;0.91;100.00;95992.16;5034719;28;20209;-68
2023/01/20 08:56:36;;;;;;;43.23;11.43;;;;;;;1.04;100.00;95992.81;5037236;28;20578;-68
2023/01/20 08:59:04;;;;;;;30.47;12.27;;;;;;;1.18;100.00;95999.47;5036550;28;20240;-67
2023/01/20 09:01:34;;;;;;;38.37;12.53;;;;;;;1.24;100.00;96000.59;5037137;28;20228;-67
2023/01/20 09:04:01;;;;;;;34.80;10.77;;;;;;;1.03;100.00;96008.50;5036504;28;20215;-67
2023/01/20 09:06:28;;;;;;;5.33;3.47;;;;;;;1.05;100.00;96010.03;5037053;28;20236;-67
2023/01/20 09:08:54;;;;;;;26.40;9.73;;;;;;;0.85;100.00;96010.00;5036219;28;20228;-67
2023/01/20 09:11:23;;;;;;;23.03;9.67;;;;;;;1.06;100.00;96016.03;5036815;28;20224;-68
2023/01/20 09:13:49;;;;;;;31.00;10.13;;;;;;;1.14;100.00;96024.03;5035824;28;20208;-68
2023/01/20 09:16:18;;;;;;;28.00;10.63;;;;;;;1.25;100.00;96015.22;5036704;28;20201;-68
2023/01/20 09:18:45;;;;;;;26.43;9.63;;;;;;;1.05;100.00;96025.59;5036597;28;20256;-67
2023/01/20 09:21:12;;;;;;;27.70;9.70;;;;;;;1.09;100.00;96031.38;5039300;28;20263;-68
2023/01/20 09:23:39;;;;;;;19.47;7.00;;;;;;;1.06;100.00;96031.59;5039734;28;20568;-67
2023/01/20 09:26:08;;;;;;;15.17;7.20;;;;;;;1.06;100.00;96031.59;5040068;28;20202;-67
2023/01/20 09:28:35;;;;;;;8.57;3.93;;;;;;;1.02;100.00;96037.97;5040526;28;20212;-69
2023/01/20 09:31:04;;;;;;;21.70;7.13;;;;;;;1.01;100.00;96039.75;5040598;28;20201;-68
2023/01/20 09:33:34;;;;;;;19.27;7.17;;;;;;;1.07;100.00;96030.66;5040797;28;20294;-67
2023/01/20 09:36:02;;;;;;;19.57;7.97;;;;;;;1.18;100.00;96041.00;5040367;28;20752;-69
2023/01/20 09:44:16;;;;;;;18.97;7.40;;;;;;;0.97;100.00;96058.28;5039726;28;20297;-68
2023/01/20 09:55:32;;;;;;;21.20;7.77;;;;;;;1.00;100.00;96068.44;5038889;28;20217;-68
2023/01/20 09:58:10;;;;;;;16.87;7.43;;;;;;;1.14;100.00;96066.34;5039861;28;20237;-69
2023/01/20 10:00:39;;;;;;;10.87;5.80;;;;;;;1.05;100.00;96061.09;5039881;28;20232;-68
2023/01/20 10:03:16;;;;;;;11.50;4.57;;;;;;;1.02;100.00;96074.31;5039777;28;20210;-68
2023/01/20 10:05:48;;;;;;;18.50;8.00;;;;;;;1.10;100.00;96064.97;5039054;28;20251;-68
2023/01/20 10:08:20;;;;;;;18.73;7.57;;;;;;;1.10;100.00;96069.34;5040187;28;20224;-68
2023/01/20 10:10:52;;;;;;;18.87;7.03;;;;;;;1.37;100.00;96070.50;5038369;28;20205;-68
2023/01/20 10:13:21;;;;;;;20.37;6.77;;;;;;;1.39;100.00;96064.22;5039440;28;20212;-68
2023/01/20 10:15:52;;;;;;;18.33;6.10;;;;;;;1.49;100.00;96067.72;5038649;28;20205;-68
2023/01/20 10:18:24;;;;;;;14.03;6.00;;;;;;;1.45;99.76;96066.31;5039491;28;20217;-68
2023/01/20 10:20:59;;;;;;;9.73;3.90;;;;;;;1.51;99.52;96060.59;5040879;28;20758;-69
2023/01/20 10:23:29;;;;;;;18.30;6.60;;;;;;;1.33;99.10;96064.72;5039972;28;20217;-69
2023/01/20 10:26:04;;;;;;;22.27;6.53;;;;;;;1.71;97.98;96061.56;5038891;28;21020;-70
2023/01/20 10:28:37;;;;;;;15.63;5.87;;;;;;;1.71;98.05;96056.38;5038653;28;21004;-69
2023/01/20 10:31:04;;;;;;;23.93;7.27;;;;;;;1.68;98.17;96065.25;5039295;28;20205;-70
2023/01/20 10:33:35;;;;;;;16.90;3.73;;;;;;;1.72;97.13;96068.38;5039417;28;20212;-68
2023/01/20 10:36:03;;;;;;;16.23;6.37;;;;;;;1.85;97.02;96069.84;5038876;28;20217;-68
2023/01/20 10:38:36;;;;;;;16.13;5.77;;;;;;;1.86;97.56;96068.91;5038735;28;20228;-68
2023/01/20 10:41:11;;;;;;;20.43;6.80;;;;;;;1.99;96.89;96059.94;5038387;28;20236;-69
2023/01/20 10:43:38;;;;;;;12.67;5.63;;;;;;;1.72;96.68;96063.19;5038408;28;20201;-68
2023/01/20 10:46:16;;;;;;;17.27;6.30;;;;;;;1.87;97.25;96065.31;5039004;28;20670;-68
2023/01/20 10:48:56;;;;;;;9.90;4.13;;;;;;;1.74;95.04;96064.72;5039026;28;20227;-68
2023/01/20 10:51:32;;;;;;;13.40;5.40;;;;;;;1.89;95.58;96066.03;5038716;28;20205;-68
2023/01/20 10:54:10;;;;;;;13.33;5.97;;;;;;;1.80;96.80;96067.63;5038205;28;20208;-68
2023/01/20 10:56:42;;;;;;;17.57;6.50;;;;;;;1.72;96.24;96058.84;5039376;28;20208;-68
2023/01/20 10:59:15;;;;;;;11.50;4.67;;;;;;;1.85;96.20;96065.47;5038365;28;20246;-68
2023/01/20 11:01:45;;;;;;;6.23;3.50;;;;;;;1.86;95.13;96059.31;5038365;28;20205;-68
2023/01/20 11:04:18;;;;;;;13.03;5.33;;;;;;;1.97;95.01;96056.66;5039225;28;20212;-68
2023/01/20 11:06:48;;;;;;;5.47;3.57;;;;;;;1.99;93.89;96056.53;5039053;28;20241;-68
2023/01/20 11:09:23;;;;;;;9.60;4.27;;;;;;;1.91;94.50;96069.34;5038404;28;20721;-70
2023/01/20 11:11:51;;;;;;;8.80;3.93;;;;;;;1.78;95.05;96068.69;5039311;28;20816;-68
2023/01/20 11:14:18;;;;;;;12.87;5.27;;;;;;;2.10;92.77;96069.41;5038411;28;20205;-68
2023/01/20 11:16:47;;;;;;;13.53;5.70;;;;;;;2.17;92.99;96070.56;5038872;28;20398;-69
2023/01/20 11:19:13;;;;;;;7.83;3.83;;;;;;;2.19;90.76;96069.47;5038892;28;20228;-69
2023/01/20 11:21:40;;;;;;;9.47;3.70;;;;;;;2.21;90.20;96064.94;5038424;28;20217;-68
2023/01/20 11:24:32;;;;;;;11.03;4.33;;;;;;;2.22;90.11;96070.97;5037424;28;20201;-68
2023/01/20 11:27:03;;;;;;;9.70;4.13;;;;;;;2.19;91.03;96073.81;5038916;28;20200;-69
2023/01/20 11:29:35;;;;;;;11.63;5.17;;;;;;;2.32;91.25;96069.22;5038811;28;20222;-69
2023/01/20 11:32:02;;;;;;;13.50;4.93;;;;;;;2.39;90.94;96075.56;5038069;28;20209;-69
2023/01/20 11:34:30;;;;;;;9.60;4.07;;;;;;;2.17;91.00;96075.75;5037831;28;20201;-69
2023/01/20 11:37:19;;;;;;;9.47;4.03;;;;;;;2.04;91.93;96081.16;5038314;28;20298;-68
2023/01/20 11:40:01;;;;;;;3.77;2.57;;;;;;;2.20;91.96;96075.47;5037870;28;20750;-68
2023/01/20 11:42:29;;;;;;;9.50;4.23;;;;;;;1.96;92.40;96080.97;5037001;28;20243;-69
2023/01/20 11:44:57;;;;;;;11.23;5.40;;;;;;;1.92;91.81;96086.56;5037424;28;20236;-69
2023/01/20 11:47:27;;;;;;;13.60;5.43;;;;;;;2.10;91.35;96079.81;5037789;28;20232;-68
2023/01/20 11:50:22;;;;;;;11.27;4.57;;;;;;;2.13;92.07;96076.97;5037921;28;20819;-69
2023/01/20 11:52:49;;;;;;;15.97;6.27;;;;;;;1.78;93.13;96084.28;5037956;28;20747;-69